sensor_id;sensor_type;location;lat;lon;timestamp;pressure;altitude;pressure_sealevel;temperature;humidity
73103;BME280;61294;65.988;29.172;2023-11-19T00:00:20;98132.97;;;-6.69;100.00
73103;BME280;61294;65.988;29.172;2023-11-19T00:02:45;98146.03;;;-6.65;100.00
73103;BME280;61294;65.988;29.172;2023-11-19T00:05:12;98134.91;;;-6.65;100.00
73103;BME280;61294;65.988;29.172;2023-11-19T00:07:39;98104.13;;;-6.82;100.00
73103;BME280;61294;65.988;29.172;2023-11-19T00:10:13;98141.78;;;-6.64;100.00
73103;BME280;61294;65.988;29.172;2023-11-19T00:12:44;98103.19;;;-6.84;100.00
73103;BME280;61294;65.988;29.172;2023-11-19T00:15:10;98143.00;;;-6.57;100.00
73103;BME280;61294;65.988;29.172;2023-11-19T00:17:43;98143.78;;;-6.59;100.00
73103;BME280;61294;65.988;29.172;2023-11-19T00:20:11;98111.59;;;-6.70;100.00
73103;BME280;61294;65.988;29.172;2023-11-19T00:22:37;98138.03;;;-6.54;100.00
73103;BME280;61294;65.988;29.172;2023-11-19T00:25:03;98138.03;;;-6.54;100.00
73103;BME280;61294;65.988;29.172;2023-11-19T00:27:29;98105.69;;;-6.69;100.00
73103;BME280;61294;65.988;29.172;2023-11-19T00:29:55;98109.31;;;-6.65;100.00
73103;BME280;61294;65.988;29.172;2023-11-19T00:32:22;98124.13;;;-6.60;100.00
73103;BME280;61294;65.988;29.172;2023-11-19T00:34:48;98140.06;;;-6.49;100.00
73103;BME280;61294;65.988;29.172;2023-11-19T00:37:15;98107.06;;;-6.59;100.00
73103;BME280;61294;65.988;29.172;2023-11-19T00:39:41;98096.66;;;-6.62;100.00
73103;BME280;61294;65.988;29.172;2023-11-19T00:42:07;98111.13;;;-6.63;100.00
73103;BME280;61294;65.988;29.172;2023-11-19T00:44:33;98107.38;;;-6.53;100.00
73103;BME280;61294;65.988;29.172;2023-11-19T00:46:59;98109.78;;;-6.56;100.00
73103;BME280;61294;65.988;29.172;2023-11-19T00:49:27;98104.91;;;-6.51;100.00
73103;BME280;61294;65.988;29.172;2023-11-19T00:51:53;98110.28;;;-6.47;100.00
73103;BME280;61294;65.988;29.172;2023-11-19T00:54:19;98105.88;;;-6.49;100.00
73103;BME280;61294;65.988;29.172;2023-11-19T00:56:45;98127.81;;;-6.38;100.00
73103;BME280;61294;65.988;29.172;2023-11-19T00:59:10;98130.41;;;-6.38;100.00
73103;BME280;61294;65.988;29.172;2023-11-19T01:01:36;98108.44;;;-6.49;100.00
73103;BME280;61294;65.988;29.172;2023-11-19T01:04:02;98132.31;;;-6.34;100.00
73103;BME280;61294;65.988;29.172;2023-11-19T01:06:31;98133.28;;;-6.32;100.00
73103;BME280;61294;65.988;29.172;2023-11-19T01:08:57;98122.69;;;-6.38;100.00
73103;BME280;61294;65.988;29.172;2023-11-19T01:11:24;98130.00;;;-6.29;100.00
73103;BME280;61294;65.988;29.172;2023-11-19T01:13:50;98126.63;;;-6.28;100.00
73103;BME280;61294;65.988;29.172;2023-11-19T01:16:17;98100.34;;;-6.40;100.00
73103;BME280;61294;65.988;29.172;2023-11-19T01:18:43;98104.91;;;-6.35;100.00
73103;BME280;61294;65.988;29.172;2023-11-19T01:21:08;98121.75;;;-6.23;100.00
73103;BME280;61294;65.988;29.172;2023-11-19T01:23:35;98114.06;;;-6.23;100.00
73103;BME280;61294;65.988;29.172;2023-11-19T01:26:01;98084.66;;;-6.47;100.00
73103;BME280;61294;65.988;29.172;2023-11-19T01:28:26;98097.94;;;-6.37;100.00
73103;BME280;61294;65.988;29.172;2023-11-19T01:30:52;98082.50;;;-6.39;100.00
73103;BME280;61294;65.988;29.172;2023-11-19T01:33:18;98120.06;;;-6.23;100.00
73103;BME280;61294;65.988;29.172;2023-11-19T01:35:44;98110.50;;;-6.26;100.00
73103;BME280;61294;65.988;29.172;2023-11-19T01:38:10;98100.25;;;-6.26;100.00
73103;BME280;61294;65.988;29.172;2023-11-19T01:40:36;98092.91;;;-6.36;100.00
73103;BME280;61294;65.988;29.172;2023-11-19T01:43:03;98090.97;;;-6.40;100.00
73103;BME280;61294;65.988;29.172;2023-11-19T01:45:30;98079.13;;;-6.38;100.00
73103;BME280;61294;65.988;29.172;2023-11-19T01:48:02;98078.16;;;-6.40;100.00
73103;BME280;61294;65.988;29.172;2023-11-19T01:50:31;98072.09;;;-6.42;100.00
73103;BME280;61294;65.988;29.172;2023-11-19T01:52:59;98101.25;;;-6.23;100.00
73103;BME280;61294;65.988;29.172;2023-11-19T01:55:26;98066.25;;;-6.39;100.00
73103;BME280;61294;65.988;29.172;2023-11-19T01:57:55;98087.38;;;-6.27;100.00
73103;BME280;61294;65.988;29.172;2023-11-19T02:00:25;98063.59;;;-6.41;100.00
73103;BME280;61294;65.988;29.172;2023-11-19T02:02:52;98092.84;;;-6.21;100.00
73103;BME280;61294;65.988;29.172;2023-11-19T02:05:18;98055.09;;;-6.40;100.00
73103;BME280;61294;65.988;29.172;2023-11-19T02:07:44;98088.25;;;-6.27;100.00
73103;BME280;61294;65.988;29.172;2023-11-19T02:10:11;98059.66;;;-6.34;100.00
73103;BME280;61294;65.988;29.172;2023-11-19T02:12:40;98058.63;;;-6.38;100.00
73103;BME280;61294;65.988;29.172;2023-11-19T02:15:09;98076.25;;;-6.28;100.00
73103;BME280;61294;65.988;29.172;2023-11-19T02:17:35;98048.16;;;-6.43;100.00
73103;BME280;61294;65.988;29.172;2023-11-19T02:20:03;98070.41;;;-6.25;100.00
73103;BME280;61294;65.988;29.172;2023-11-19T02:22:32;98081.75;;;-6.20;100.00
73103;BME280;61294;65.988;29.172;2023-11-19T02:25:25;98079.59;;;-6.12;100.00
73103;BME280;61294;65.988;29.172;2023-11-19T02:27:55;98077.19;;;-6.09;100.00
73103;BME280;61294;65.988;29.172;2023-11-19T02:30:25;98071.13;;;-6.11;100.00
73103;BME280;61294;65.988;29.172;2023-11-19T02:32:57;98073.91;;;-6.07;100.00
73103;BME280;61294;65.988;29.172;2023-11-19T02:35:24;98082.47;;;-6.06;100.00
73103;BME280;61294;65.988;29.172;2023-11-19T02:37:59;98021.28;;;-6.33;100.00
73103;BME280;61294;65.988;29.172;2023-11-19T02:40:29;98049.56;;;-6.15;100.00
73103;BME280;61294;65.988;29.172;2023-11-19T02:42:55;98056.81;;;-6.06;100.00
73103;BME280;61294;65.988;29.172;2023-11-19T02:45:25;98038.50;;;-6.14;100.00
73103;BME280;61294;65.988;29.172;2023-11-19T02:47:53;98051.63;;;-6.08;100.00
73103;BME280;61294;65.988;29.172;2023-11-19T02:50:20;98043.06;;;-6.08;100.00
73103;BME280;61294;65.988;29.172;2023-11-19T02:52:54;98060.59;;;-5.99;100.00
73103;BME280;61294;65.988;29.172;2023-11-19T02:55:21;98053.63;;;-6.02;100.00
73103;BME280;61294;65.988;29.172;2023-11-19T02:57:49;98034.31;;;-6.12;100.00
73103;BME280;61294;65.988;29.172;2023-11-19T03:00:20;98063.34;;;-5.95;100.00
73103;BME280;61294;65.988;29.172;2023-11-19T03:02:50;98060.72;;;-5.96;100.00
73103;BME280;61294;65.988;29.172;2023-11-19T03:05:30;98063.22;;;-5.98;100.00
73103;BME280;61294;65.988;29.172;2023-11-19T03:07:56;98048.75;;;-5.96;100.00
73103;BME280;61294;65.988;29.172;2023-11-19T03:10:23;98056.72;;;-5.91;100.00
73103;BME280;61294;65.988;29.172;2023-11-19T03:12:49;98043.38;;;-6.02;100.00
73103;BME280;61294;65.988;29.172;2023-11-19T03:15:15;98032.88;;;-6.07;100.00
73103;BME280;61294;65.988;29.172;2023-11-19T03:17:41;98054.94;;;-5.92;100.00
73103;BME280;61294;65.988;29.172;2023-11-19T03:20:10;98043.28;;;-6.03;100.00
73103;BME280;61294;65.988;29.172;2023-11-19T03:22:39;98053.03;;;-5.96;100.00
73103;BME280;61294;65.988;29.172;2023-11-19T03:25:07;98061.00;;;-5.90;100.00
73103;BME280;61294;65.988;29.172;2023-11-19T03:27:35;98061.00;;;-5.90;100.00
73103;BME280;61294;65.988;29.172;2023-11-19T03:30:02;98034.88;;;-6.01;100.00
73103;BME280;61294;65.988;29.172;2023-11-19T03:32:31;98038.16;;;-6.03;100.00
73103;BME280;61294;65.988;29.172;2023-11-19T03:34:57;98061.84;;;-5.91;100.00
73103;BME280;61294;65.988;29.172;2023-11-19T03:37:23;98032.97;;;-6.05;100.00
73103;BME280;61294;65.988;29.172;2023-11-19T03:39:49;98036.91;;;-5.94;100.00
73103;BME280;61294;65.988;29.172;2023-11-19T03:42:15;98014.13;;;-6.05;100.00
73103;BME280;61294;65.988;29.172;2023-11-19T03:44:40;98042.97;;;-5.92;100.00
73103;BME280;61294;65.988;29.172;2023-11-19T03:47:06;98046.38;;;-5.93;100.00
73103;BME280;61294;65.988;29.172;2023-11-19T03:49:32;98030.00;;;-5.95;100.00
73103;BME280;61294;65.988;29.172;2023-11-19T03:51:58;97998.56;;;-6.09;100.00
73103;BME280;61294;65.988;29.172;2023-11-19T03:54:23;98029.28;;;-5.92;100.00
73103;BME280;61294;65.988;29.172;2023-11-19T03:56:50;98025.63;;;-5.97;100.00
73103;BME280;61294;65.988;29.172;2023-11-19T03:59:15;98020.34;;;-6.00;100.00
73103;BME280;61294;65.988;29.172;2023-11-19T04:01:41;98017.13;;;-5.96;100.00
73103;BME280;61294;65.988;29.172;2023-11-19T04:04:07;98050.44;;;-5.80;100.00
73103;BME280;61294;65.988;29.172;2023-11-19T04:06:32;98023.13;;;-5.96;100.00
73103;BME280;61294;65.988;29.172;2023-11-19T04:08:58;98025.28;;;-5.87;100.00
73103;BME280;61294;65.988;29.172;2023-11-19T04:11:24;98045.94;;;-5.84;100.00
73103;BME280;61294;65.988;29.172;2023-11-19T04:13:49;98017.97;;;-5.96;100.00
73103;BME280;61294;65.988;29.172;2023-11-19T04:16:15;98037.28;;;-5.86;100.00
73103;BME280;61294;65.988;29.172;2023-11-19T04:18:41;98016.25;;;-5.97;100.00
73103;BME280;61294;65.988;29.172;2023-11-19T04:21:07;98042.66;;;-5.81;100.00
73103;BME280;61294;65.988;29.172;2023-11-19T04:23:33;98015.53;;;-5.94;100.00
73103;BME280;61294;65.988;29.172;2023-11-19T04:26:02;98024.69;;;-5.81;100.00
73103;BME280;61294;65.988;29.172;2023-11-19T04:28:28;98016.53;;;-5.91;100.00
73103;BME280;61294;65.988;29.172;2023-11-19T04:30:54;97994.78;;;-5.99;100.00
73103;BME280;61294;65.988;29.172;2023-11-19T04:33:20;98033.50;;;-5.76;100.00
73103;BME280;61294;65.988;29.172;2023-11-19T04:35:46;98004.59;;;-5.90;100.00
73103;BME280;61294;65.988;29.172;2023-11-19T04:38:11;98000.00;;;-5.97;100.00
73103;BME280;61294;65.988;29.172;2023-11-19T04:40:37;98005.13;;;-5.97;100.00
73103;BME280;61294;65.988;29.172;2023-11-19T04:43:03;97977.03;;;-6.12;100.00
73103;BME280;61294;65.988;29.172;2023-11-19T04:45:28;98011.13;;;-5.97;100.00
73103;BME280;61294;65.988;29.172;2023-11-19T04:47:54;97999.91;;;-5.99;100.00
73103;BME280;61294;65.988;29.172;2023-11-19T04:50:20;98023.50;;;-5.88;100.00
73103;BME280;61294;65.988;29.172;2023-11-19T04:52:46;97993.84;;;-6.01;100.00
73103;BME280;61294;65.988;29.172;2023-11-19T04:55:12;98016.75;;;-5.86;100.00
73103;BME280;61294;65.988;29.172;2023-11-19T04:57:40;98018.53;;;-5.85;100.00
73103;BME280;61294;65.988;29.172;2023-11-19T05:00:06;97988.19;;;-5.94;100.00
73103;BME280;61294;65.988;29.172;2023-11-19T05:02:34;98005.69;;;-5.85;100.00
73103;BME280;61294;65.988;29.172;2023-11-19T05:05:01;97988.91;;;-5.96;100.00
73103;BME280;61294;65.988;29.172;2023-11-19T05:07:29;97988.03;;;-5.97;100.00
73103;BME280;61294;65.988;29.172;2023-11-19T05:09:54;97990.59;;;-5.97;100.00
73103;BME280;61294;65.988;29.172;2023-11-19T05:12:20;97984.00;;;-5.92;100.00
73103;BME280;61294;65.988;29.172;2023-11-19T05:14:46;98018.66;;;-5.82;100.00
73103;BME280;61294;65.988;29.172;2023-11-19T05:17:15;97986.41;;;-5.95;100.00
73103;BME280;61294;65.988;29.172;2023-11-19T05:19:43;97991.28;;;-6.01;100.00
73103;BME280;61294;65.988;29.172;2023-11-19T05:22:08;97998.50;;;-5.92;100.00
73103;BME280;61294;65.988;29.172;2023-11-19T05:24:34;98017.72;;;-5.84;100.00
73103;BME280;61294;65.988;29.172;2023-11-19T05:27:01;97980.81;;;-6.05;100.00
73103;BME280;61294;65.988;29.172;2023-11-19T05:29:27;98011.56;;;-5.87;100.00
73103;BME280;61294;65.988;29.172;2023-11-19T05:31:53;97982.53;;;-6.04;100.00
73103;BME280;61294;65.988;29.172;2023-11-19T05:34:20;98003.72;;;-5.91;100.00
73103;BME280;61294;65.988;29.172;2023-11-19T05:36:47;97994.03;;;-5.96;100.00
73103;BME280;61294;65.988;29.172;2023-11-19T05:39:13;98027.09;;;-5.84;100.00
73103;BME280;61294;65.988;29.172;2023-11-19T05:41:38;97994.91;;;-5.96;100.00
73103;BME280;61294;65.988;29.172;2023-11-19T05:44:04;97994.09;;;-5.95;100.00
73103;BME280;61294;65.988;29.172;2023-11-19T05:46:30;98021.97;;;-5.84;100.00
73103;BME280;61294;65.988;29.172;2023-11-19T05:48:55;97995.09;;;-5.93;100.00
73103;BME280;61294;65.988;29.172;2023-11-19T05:51:21;98022.88;;;-5.84;100.00
73103;BME280;61294;65.988;29.172;2023-11-19T05:53:49;98020.44;;;-5.81;100.00
73103;BME280;61294;65.988;29.172;2023-11-19T05:56:15;98024.78;;;-5.80;100.00
73103;BME280;61294;65.988;29.172;2023-11-19T05:58:46;97999.31;;;-5.93;100.00
73103;BME280;61294;65.988;29.172;2023-11-19T06:01:13;97991.53;;;-5.95;100.00
73103;BME280;61294;65.988;29.172;2023-11-19T06:03:39;97993.84;;;-6.01;100.00
73103;BME280;61294;65.988;29.172;2023-11-19T06:06:05;98013.25;;;-5.88;100.00
73103;BME280;61294;65.988;29.172;2023-11-19T06:08:31;97987.75;;;-6.03;100.00
73103;BME280;61294;65.988;29.172;2023-11-19T06:10:57;98007.97;;;-5.91;100.00
73103;BME280;61294;65.988;29.172;2023-11-19T06:13:23;98014.19;;;-5.86;100.00
73103;BME280;61294;65.988;29.172;2023-11-19T06:15:50;97968.50;;;-6.13;100.00
73103;BME280;61294;65.988;29.172;2023-11-19T06:18:16;98016.75;;;-5.86;100.00
73103;BME280;61294;65.988;29.172;2023-11-19T06:20:45;97991.22;;;-6.02;100.00
73103;BME280;61294;65.988;29.172;2023-11-19T06:23:11;98020.28;;;-5.84;100.00
73103;BME280;61294;65.988;29.172;2023-11-19T06:25:36;98015.25;;;-5.82;100.00
73103;BME280;61294;65.988;29.172;2023-11-19T06:28:03;97995.38;;;-6.04;100.00
73103;BME280;61294;65.988;29.172;2023-11-19T06:30:28;98017.59;;;-5.87;100.00
73103;BME280;61294;65.988;29.172;2023-11-19T06:32:56;98021.81;;;-5.87;100.00
73103;BME280;61294;65.988;29.172;2023-11-19T06:35:21;97998.28;;;-5.97;100.00
73103;BME280;61294;65.988;29.172;2023-11-19T06:37:47;98027.03;;;-5.86;100.00
73103;BME280;61294;65.988;29.172;2023-11-19T06:40:13;98020.06;;;-5.88;100.00
73103;BME280;61294;65.988;29.172;2023-11-19T06:42:41;98021.81;;;-5.87;100.00
73103;BME280;61294;65.988;29.172;2023-11-19T06:45:07;97982.31;;;-6.09;100.00
73103;BME280;61294;65.988;29.172;2023-11-19T06:47:32;98029.59;;;-5.86;100.00
73103;BME280;61294;65.988;29.172;2023-11-19T06:49:58;98032.00;;;-5.89;100.00
73103;BME280;61294;65.988;29.172;2023-11-19T06:52:24;98023.38;;;-5.91;100.00
73103;BME280;61294;65.988;29.172;2023-11-19T06:54:50;97992.22;;;-6.17;100.00
73103;BME280;61294;65.988;29.172;2023-11-19T06:57:16;97999.63;;;-6.05;100.00
73103;BME280;61294;65.988;29.172;2023-11-19T06:59:42;98033.63;;;-5.91;100.00
73103;BME280;61294;65.988;29.172;2023-11-19T07:02:08;98036.13;;;-5.93;100.00
73103;BME280;61294;65.988;29.172;2023-11-19T07:04:34;98031.22;;;-5.88;100.00
73103;BME280;61294;65.988;29.172;2023-11-19T07:07:00;98009.22;;;-6.01;100.00
73103;BME280;61294;65.988;29.172;2023-11-19T07:09:26;98026.16;;;-5.86;100.00
73103;BME280;61294;65.988;29.172;2023-11-19T07:11:52;97981.53;;;-6.08;100.00
73103;BME280;61294;65.988;29.172;2023-11-19T07:14:19;98018.66;;;-5.82;100.00
73103;BME280;61294;65.988;29.172;2023-11-19T07:16:45;98017.88;;;-5.81;100.00
73103;BME280;61294;65.988;29.172;2023-11-19T07:19:11;98028.84;;;-5.83;100.00
73103;BME280;61294;65.988;29.172;2023-11-19T07:21:40;98021.53;;;-5.94;100.00
73103;BME280;61294;65.988;29.172;2023-11-19T07:24:09;98020.44;;;-5.99;100.00
73103;BME280;61294;65.988;29.172;2023-11-19T07:26:36;98020.66;;;-5.94;100.00
73103;BME280;61294;65.988;29.172;2023-11-19T07:29:03;98044.81;;;-5.89;100.00
73103;BME280;61294;65.988;29.172;2023-11-19T07:31:28;98038.19;;;-5.85;100.00
73103;BME280;61294;65.988;29.172;2023-11-19T07:33:54;98033.63;;;-5.91;100.00
73103;BME280;61294;65.988;29.172;2023-11-19T07:36:20;98039.91;;;-5.84;100.00
73103;BME280;61294;65.988;29.172;2023-11-19T07:38:46;98033.84;;;-5.86;100.00
73103;BME280;61294;65.988;29.172;2023-11-19T07:41:13;98043.31;;;-5.85;100.00
73103;BME280;61294;65.988;29.172;2023-11-19T07:43:45;98039.13;;;-5.83;100.00
73103;BME280;61294;65.988;29.172;2023-11-19T07:46:12;98041.03;;;-5.79;100.00
73103;BME280;61294;65.988;29.172;2023-11-19T07:48:39;98011.19;;;-5.95;100.00
73103;BME280;61294;65.988;29.172;2023-11-19T07:51:05;98009.81;;;-6.07;100.00
73103;BME280;61294;65.988;29.172;2023-11-19T07:53:31;98037.06;;;-5.91;100.00
73103;BME280;61294;65.988;29.172;2023-11-19T07:55:58;98033.78;;;-5.88;100.00
73103;BME280;61294;65.988;29.172;2023-11-19T07:58:27;98026.88;;;-5.89;100.00
73103;BME280;61294;65.988;29.172;2023-11-19T08:00:53;98013.63;;;-5.98;100.00
73103;BME280;61294;65.988;29.172;2023-11-19T08:03:18;98032.72;;;-5.92;100.00
73103;BME280;61294;65.988;29.172;2023-11-19T08:05:45;98034.63;;;-5.87;100.00
73103;BME280;61294;65.988;29.172;2023-11-19T08:08:12;98042.91;;;-5.93;100.00
73103;BME280;61294;65.988;29.172;2023-11-19T08:10:37;98010.75;;;-6.04;100.00
73103;BME280;61294;65.988;29.172;2023-11-19T08:13:04;98045.72;;;-5.88;100.00
73103;BME280;61294;65.988;29.172;2023-11-19T08:15:29;98047.63;;;-5.84;100.00
73103;BME280;61294;65.988;29.172;2023-11-19T08:17:55;98032.06;;;-5.87;100.00
73103;BME280;61294;65.988;29.172;2023-11-19T08:20:22;98051.06;;;-5.84;100.00
73103;BME280;61294;65.988;29.172;2023-11-19T08:22:47;98046.03;;;-5.82;100.00
73103;BME280;61294;65.988;29.172;2023-11-19T08:25:14;98031.50;;;-5.82;100.00
73103;BME280;61294;65.988;29.172;2023-11-19T08:27:39;98032.50;;;-5.96;100.00
73103;BME280;61294;65.988;29.172;2023-11-19T08:30:06;98010.38;;;-6.12;100.00
73103;BME280;61294;65.988;29.172;2023-11-19T08:32:32;98033.19;;;-6.00;100.00
73103;BME280;61294;65.988;29.172;2023-11-19T08:34:58;98055.81;;;-5.92;100.00
73103;BME280;61294;65.988;29.172;2023-11-19T08:37:24;98065.50;;;-5.86;100.00
73103;BME280;61294;65.988;29.172;2023-11-19T08:39:50;98041.97;;;-5.95;100.00
73103;BME280;61294;65.988;29.172;2023-11-19T08:42:17;98063.47;;;-5.75;100.00
73103;BME280;61294;65.988;29.172;2023-11-19T08:44:43;98060.97;;;-5.74;100.00
73103;BME280;61294;65.988;29.172;2023-11-19T08:47:10;98070.59;;;-5.69;100.00
73103;BME280;61294;65.988;29.172;2023-11-19T08:49:37;98064.50;;;-5.72;100.00
73103;BME280;61294;65.988;29.172;2023-11-19T08:52:02;98046.97;;;-5.80;100.00
73103;BME280;61294;65.988;29.172;2023-11-19T08:54:28;98075.72;;;-5.69;100.00
73103;BME280;61294;65.988;29.172;2023-11-19T08:56:54;98045.28;;;-5.98;100.00
73103;BME280;61294;65.988;29.172;2023-11-19T08:59:19;98062.06;;;-5.86;100.00
73103;BME280;61294;65.988;29.172;2023-11-19T09:01:45;98060.97;;;-5.74;100.00
73103;BME280;61294;65.988;29.172;2023-11-19T09:04:11;98039.13;;;-5.83;100.00
73103;BME280;61294;65.988;29.172;2023-11-19T09:06:37;98055.44;;;-5.65;100.00
73103;BME280;61294;65.988;29.172;2023-11-19T09:09:02;98068.53;;;-5.59;100.00
73103;BME280;61294;65.988;29.172;2023-11-19T09:11:31;98068.84;;;-5.70;100.00
73103;BME280;61294;65.988;29.172;2023-11-19T09:13:57;98046.09;;;-5.81;100.00
73103;BME280;61294;65.988;29.172;2023-11-19T09:16:23;98074.25;;;-5.64;100.00
73103;BME280;61294;65.988;29.172;2023-11-19T09:18:49;98055.44;;;-5.65;100.00
73103;BME280;61294;65.988;29.172;2023-11-19T09:21:15;98015.38;;;-5.97;100.00
73103;BME280;61294;65.988;29.172;2023-11-19T09:23:41;98068.97;;;-5.67;100.00
73103;BME280;61294;65.988;29.172;2023-11-19T09:26:08;98069.63;;;-5.72;100.00
73103;BME280;61294;65.988;29.172;2023-11-19T09:28:36;98069.56;;;-5.73;100.00
73103;BME280;61294;65.988;29.172;2023-11-19T09:31:02;98032.97;;;-5.87;100.00
73103;BME280;61294;65.988;29.172;2023-11-19T09:33:30;98065.41;;;-5.71;100.00
73103;BME280;61294;65.988;29.172;2023-11-19T09:35:56;98042.72;;;-5.80;100.00
73103;BME280;61294;65.988;29.172;2023-11-19T09:38:23;98042.31;;;-5.71;100.00
73103;BME280;61294;65.988;29.172;2023-11-19T09:40:49;98054.41;;;-5.68;100.00
73103;BME280;61294;65.988;29.172;2023-11-19T09:43:15;98026.38;;;-5.82;100.00
73103;BME280;61294;65.988;29.172;2023-11-19T09:45:51;98049.56;;;-5.62;100.00
73103;BME280;61294;65.988;29.172;2023-11-19T09:48:18;98051.00;;;-5.67;100.00
73103;BME280;61294;65.988;29.172;2023-11-19T09:50:48;98060.69;;;-5.80;100.00
73103;BME280;61294;65.988;29.172;2023-11-19T09:53:15;98045.66;;;-5.72;100.00
73103;BME280;61294;65.988;29.172;2023-11-19T09:55:41;98010.53;;;-5.91;100.00
73103;BME280;61294;65.988;29.172;2023-11-19T09:58:07;98021.66;;;-5.91;100.00
73103;BME280;61294;65.988;29.172;2023-11-19T10:00:34;98042.72;;;-5.80;100.00
73103;BME280;61294;65.988;29.172;2023-11-19T10:03:00;98018.16;;;-5.93;100.00
73103;BME280;61294;65.988;29.172;2023-11-19T10:05:27;98003.56;;;-5.94;100.00
73103;BME280;61294;65.988;29.172;2023-11-19T10:07:53;98031.97;;;-5.73;100.00
73103;BME280;61294;65.988;29.172;2023-11-19T10:10:21;98008.06;;;-5.90;100.00
73103;BME280;61294;65.988;29.172;2023-11-19T10:12:47;98036.56;;;-5.83;100.00
73103;BME280;61294;65.988;29.172;2023-11-19T10:15:23;98008.44;;;-6.00;100.00
73103;BME280;61294;65.988;29.172;2023-11-19T10:17:51;98045.72;;;-5.88;100.00
73103;BME280;61294;65.988;29.172;2023-11-19T10:20:17;98012.44;;;-6.05;100.00
73103;BME280;61294;65.988;29.172;2023-11-19T10:22:43;98040.41;;;-5.92;100.00
73103;BME280;61294;65.988;29.172;2023-11-19T10:25:26;98040.16;;;-5.98;100.00
73103;BME280;61294;65.988;29.172;2023-11-19T10:27:53;98032.56;;;-5.95;100.00
73103;BME280;61294;65.988;29.172;2023-11-19T10:30:23;97984.66;;;-6.14;100.00
73103;BME280;61294;65.988;29.172;2023-11-19T10:33:07;98049.22;;;-5.86;100.00
73103;BME280;61294;65.988;29.172;2023-11-19T10:35:50;98023.81;;;-6.00;100.00
73103;BME280;61294;65.988;29.172;2023-11-19T10:38:17;98052.66;;;-5.86;100.00
73103;BME280;61294;65.988;29.172;2023-11-19T10:40:44;98060.28;;;-5.87;100.00
73103;BME280;61294;65.988;29.172;2023-11-19T10:43:09;98049.09;;;-5.90;100.00
73103;BME280;61294;65.988;29.172;2023-11-19T10:45:36;98060.78;;;-5.95;100.00
73103;BME280;61294;65.988;29.172;2023-11-19T10:48:03;98029.19;;;-6.12;100.00
73103;BME280;61294;65.988;29.172;2023-11-19T10:50:36;98053.41;;;-5.88;100.00
73103;BME280;61294;65.988;29.172;2023-11-19T10:53:03;98050.84;;;-5.88;100.00
73103;BME280;61294;65.988;29.172;2023-11-19T10:55:34;98054.72;;;-5.97;100.00
73103;BME280;61294;65.988;29.172;2023-11-19T10:58:10;98016.88;;;-6.19;100.00
73103;BME280;61294;65.988;29.172;2023-11-19T11:00:44;98046.44;;;-5.91;100.00
73103;BME280;61294;65.988;29.172;2023-11-19T11:03:21;98055.63;;;-5.78;100.00
73103;BME280;61294;65.988;29.172;2023-11-19T11:05:49;98065.00;;;-5.79;100.00
73103;BME280;61294;65.988;29.172;2023-11-19T11:08:15;98032.78;;;-5.90;100.00
73103;BME280;61294;65.988;29.172;2023-11-19T11:10:47;98052.91;;;-5.81;100.00
73103;BME280;61294;65.988;29.172;2023-11-19T11:13:17;98066.88;;;-5.93;100.00
73103;BME280;61294;65.988;29.172;2023-11-19T11:15:47;98059.91;;;-5.95;100.00
73103;BME280;61294;65.988;29.172;2023-11-19T11:18:13;98061.00;;;-5.90;100.00
73103;BME280;61294;65.988;29.172;2023-11-19T11:20:40;98036.84;;;-5.95;100.00
73103;BME280;61294;65.988;29.172;2023-11-19T11:28:37;98032.88;;;-6.07;100.00
73103;BME280;61294;65.988;29.172;2023-11-19T11:39:29;98032.66;;;-5.93;100.00
73103;BME280;61294;65.988;29.172;2023-11-19T11:45:01;98048.34;;;-6.05;100.00
73103;BME280;61294;65.988;29.172;2023-11-19T11:50:09;98015.22;;;-6.18;100.00
73103;BME280;61294;65.988;29.172;2023-11-19T11:55:33;98022.41;;;-6.11;100.00
73103;BME280;61294;65.988;29.172;2023-11-19T11:58:00;98039.22;;;-6.00;100.00
73103;BME280;61294;65.988;29.172;2023-11-19T12:00:38;98037.28;;;-6.04;100.00
73103;BME280;61294;65.988;29.172;2023-11-19T12:03:06;98053.97;;;-6.12;100.00
73103;BME280;61294;65.988;29.172;2023-11-19T12:05:44;98053.47;;;-6.05;100.00
73103;BME280;61294;65.988;29.172;2023-11-19T12:08:12;98059.00;;;-5.96;100.00
73103;BME280;61294;65.988;29.172;2023-11-19T12:10:48;98056.63;;;-5.93;100.00
73103;BME280;61294;65.988;29.172;2023-11-19T12:13:16;98031.34;;;-6.03;100.00
73103;BME280;61294;65.988;29.172;2023-11-19T12:18:30;98059.72;;;-6.00;100.00
73103;BME280;61294;65.988;29.172;2023-11-19T12:20:59;98060.44;;;-6.02;100.00
73103;BME280;61294;65.988;29.172;2023-11-19T12:23:32;98057.06;;;-6.01;100.00
73103;BME280;61294;65.988;29.172;2023-11-19T12:25:58;98035.72;;;-6.18;100.00
73103;BME280;61294;65.988;29.172;2023-11-19T12:28:24;98062.59;;;-6.10;100.00
73103;BME280;61294;65.988;29.172;2023-11-19T12:30:53;98059.66;;;-6.18;100.00
73103;BME280;61294;65.988;29.172;2023-11-19T12:33:19;98057.50;;;-6.27;100.00
73103;BME280;61294;65.988;29.172;2023-11-19T12:35:47;98065.00;;;-6.13;100.00
73103;BME280;61294;65.988;29.172;2023-11-19T12:38:25;98059.00;;;-6.14;100.00
73103;BME280;61294;65.988;29.172;2023-11-19T12:41:07;98057.41;;;-6.12;100.00
73103;BME280;61294;65.988;29.172;2023-11-19T12:43:33;98053.97;;;-6.12;100.00
73103;BME280;61294;65.988;29.172;2023-11-19T12:46:00;98051.19;;;-6.17;100.00
73103;BME280;61294;65.988;29.172;2023-11-19T12:48:26;98057.09;;;-6.18;100.00
73103;BME280;61294;65.988;29.172;2023-11-19T12:50:55;98035.78;;;-6.33;100.00
73103;BME280;61294;65.988;29.172;2023-11-19T12:53:23;98049.91;;;-6.25;100.00
73103;BME280;61294;65.988;29.172;2023-11-19T12:55:50;98059.09;;;-6.29;100.00
73103;BME280;61294;65.988;29.172;2023-11-19T12:58:33;98027.81;;;-6.39;100.00
73103;BME280;61294;65.988;29.172;2023-11-19T13:01:08;98064.47;;;-6.40;100.00
73103;BME280;61294;65.988;29.172;2023-11-19T13:03:36;98030.69;;;-6.50;100.00
73103;BME280;61294;65.988;29.172;2023-11-19T13:06:14;98024.69;;;-6.67;100.00